createdAt,value
2023-04-26T00:00:32.007Z,20.97
2023-04-26T00:01:32.022Z,20.97
2023-04-26T00:02:32.101Z,20.97
2023-04-26T00:03:32.123Z,20.96
2023-04-26T00:04:32.350Z,20.97
2023-04-26T00:05:32.111Z,20.95
2023-04-26T00:06:32.107Z,20.95
2023-04-26T00:07:32.108Z,20.95
2023-04-26T00:08:32.149Z,20.96
2023-04-26T00:09:32.188Z,20.95
2023-04-26T00:10:32.197Z,20.96
2023-04-26T00:11:32.223Z,20.94
2023-04-26T00:12:32.228Z,20.94
2023-04-26T00:13:32.273Z,20.94
2023-04-26T00:14:32.297Z,20.92
2023-04-26T00:15:32.300Z,20.91
2023-04-26T00:16:32.322Z,20.92
2023-04-26T00:17:32.348Z,20.91
2023-04-26T00:18:32.391Z,20.90
2023-04-26T00:19:32.373Z,20.91
2023-04-26T00:20:32.434Z,20.90
2023-04-26T00:21:32.436Z,20.90
2023-04-26T00:22:32.481Z,20.91
2023-04-26T00:23:32.473Z,20.90
2023-04-26T00:24:32.524Z,20.89
2023-04-26T00:25:32.531Z,20.88
2023-04-26T00:26:32.569Z,20.88
2023-04-26T00:27:32.564Z,20.88
2023-04-26T00:28:32.588Z,20.88
2023-04-26T00:29:32.639Z,20.88
2023-04-26T00:30:32.662Z,20.86
2023-04-26T00:31:32.756Z,20.85
2023-04-26T00:32:32.741Z,20.87
2023-04-26T00:33:32.725Z,20.85
2023-04-26T00:34:33.248Z,20.85
2023-04-26T00:35:32.783Z,20.85
2023-04-26T00:36:32.807Z,20.84
2023-04-26T00:37:32.840Z,20.85
2023-04-26T00:38:32.851Z,20.85
2023-04-26T00:39:32.867Z,20.83
2023-04-26T00:40:32.897Z,20.82
2023-04-26T00:41:32.948Z,20.82
2023-04-26T00:42:32.974Z,20.82
2023-04-26T00:43:33.031Z,20.81
2023-04-26T00:44:33.027Z,20.82
2023-04-26T00:45:33.140Z,20.81
2023-04-26T00:46:33.101Z,20.80
2023-04-26T00:47:33.175Z,20.80
2023-04-26T00:48:33.164Z,20.80
2023-04-26T00:49:33.176Z,20.80
2023-04-26T00:50:33.248Z,20.79
2023-04-26T00:51:33.262Z,20.78
2023-04-26T00:52:33.319Z,20.78
2023-04-26T00:53:33.311Z,20.77
2023-04-26T00:54:33.364Z,20.76
2023-04-26T00:55:33.459Z,20.77
2023-04-26T00:56:33.416Z,20.77
2023-04-26T00:57:33.459Z,20.76
2023-04-26T00:58:33.480Z,20.76
2023-04-26T00:59:33.518Z,20.76
2023-04-26T01:00:33.567Z,20.77
2023-04-26T01:01:33.741Z,20.75
2023-04-26T01:02:33.741Z,20.75
2023-04-26T01:03:33.754Z,20.74
2023-04-26T01:04:33.778Z,20.73
2023-04-26T01:05:33.729Z,20.71
2023-04-26T01:06:33.759Z,20.70
2023-04-26T01:07:33.828Z,20.70
2023-04-26T01:08:33.808Z,20.69
2023-04-26T01:09:33.875Z,20.68
2023-04-26T01:10:33.860Z,20.68
2023-04-26T01:11:33.892Z,20.69
2023-04-26T01:12:33.914Z,20.69
2023-04-26T01:13:33.948Z,20.68
2023-04-26T01:14:33.998Z,20.67
2023-04-26T01:15:34.038Z,20.66
2023-04-26T01:16:34.119Z,20.68
2023-04-26T01:17:34.111Z,20.67
2023-04-26T01:18:34.098Z,20.66
2023-04-26T01:19:34.117Z,20.66
2023-04-26T01:20:34.204Z,20.66
2023-04-26T01:21:34.222Z,20.66
2023-04-26T01:22:34.248Z,20.65
2023-04-26T01:23:34.253Z,20.64
2023-04-26T01:24:34.306Z,20.63
2023-04-26T01:25:34.334Z,20.63
2023-04-26T01:26:34.384Z,20.61
2023-04-26T01:27:34.392Z,20.61
2023-04-26T01:28:34.426Z,20.62
2023-04-26T01:29:34.481Z,20.60
2023-04-26T01:30:34.505Z,20.60
2023-04-26T01:31:34.574Z,20.62
2023-04-26T01:32:34.628Z,20.61
2023-04-26T01:33:34.601Z,20.60
2023-04-26T01:34:34.656Z,20.59
2023-04-26T01:35:34.691Z,20.58
2023-04-26T01:36:34.725Z,20.58
2023-04-26T01:37:34.734Z,20.59
2023-04-26T01:38:34.776Z,20.58
2023-04-26T01:39:34.801Z,20.58
2023-04-26T01:40:34.865Z,20.59
2023-04-26T01:41:34.920Z,20.61
2023-04-26T01:42:34.891Z,20.59
2023-04-26T01:43:34.911Z,20.57
2023-04-26T01:44:34.951Z,20.57
2023-04-26T01:45:35.049Z,20.58
2023-04-26T01:46:35.094Z,20.58
2023-04-26T01:47:35.104Z,20.59
2023-04-26T01:48:35.077Z,20.59
2023-04-26T01:49:35.139Z,20.58
2023-04-26T01:50:35.152Z,20.57
2023-04-26T01:51:35.174Z,20.57
2023-04-26T01:52:35.225Z,20.57
2023-04-26T01:53:35.296Z,20.57
2023-04-26T01:54:35.273Z,20.56
2023-04-26T01:55:35.325Z,20.56
2023-04-26T01:56:35.369Z,20.55
2023-04-26T01:57:35.385Z,20.54
2023-04-26T01:58:35.442Z,20.54
2023-04-26T01:59:35.461Z,20.54
2023-04-26T02:00:35.488Z,20.53
2023-04-26T02:01:35.587Z,20.53
2023-04-26T02:02:35.730Z,20.54
2023-04-26T02:03:35.672Z,20.53
2023-04-26T02:04:35.684Z,20.55
2023-04-26T02:05:35.695Z,20.55
2023-04-26T02:06:35.788Z,20.56
2023-04-26T02:07:35.806Z,20.54
2023-04-26T02:08:35.854Z,20.55
2023-04-26T02:09:35.912Z,20.55
2023-04-26T02:10:35.926Z,20.54
2023-04-26T02:11:35.986Z,20.53
2023-04-26T02:12:36.019Z,20.52
2023-04-26T02:13:36.058Z,20.52
2023-04-26T02:14:36.113Z,20.53
2023-04-26T02:15:36.159Z,20.53
2023-04-26T02:16:36.273Z,20.52
2023-04-26T02:17:36.272Z,20.51
2023-04-26T02:18:36.308Z,20.49
2023-04-26T02:19:36.320Z,20.50
2023-04-26T02:20:36.367Z,20.50
2023-04-26T02:21:36.427Z,20.50
2023-04-26T02:22:36.461Z,20.51
2023-04-26T02:23:36.468Z,20.51
2023-04-26T02:24:36.518Z,20.52
2023-04-26T02:25:36.599Z,20.50
2023-04-26T02:26:36.609Z,20.50
2023-04-26T02:27:36.701Z,20.50
2023-04-26T02:28:36.740Z,20.48
2023-04-26T02:29:44.496Z,20.48
2023-04-26T02:30:37.789Z,20.46
2023-04-26T02:31:36.794Z,20.45
2023-04-26T02:32:36.803Z,20.46
2023-04-26T02:33:36.765Z,20.45
2023-04-26T02:34:36.756Z,20.45
2023-04-26T02:35:36.770Z,20.44
2023-04-26T02:36:36.699Z,20.42
2023-04-26T02:37:36.737Z,20.41
2023-04-26T02:38:36.770Z,20.40
2023-04-26T02:39:36.732Z,20.42
2023-04-26T02:40:36.797Z,20.41
2023-04-26T02:41:36.832Z,20.40
2023-04-26T02:42:36.916Z,20.38
2023-04-26T02:43:36.926Z,20.39
2023-04-26T02:44:37.023Z,20.40
2023-04-26T02:45:37.047Z,20.40
2023-04-26T02:46:37.105Z,20.40
2023-04-26T02:47:37.169Z,20.40
2023-04-26T02:48:37.188Z,20.40
2023-04-26T02:49:37.252Z,20.40
2023-04-26T02:50:37.330Z,20.39
2023-04-26T02:51:37.396Z,20.39
2023-04-26T02:52:37.410Z,20.39
2023-04-26T02:53:37.525Z,20.38
2023-04-26T02:54:37.589Z,20.39
2023-04-26T02:55:37.604Z,20.37
2023-04-26T02:56:37.681Z,20.36
2023-04-26T02:57:37.688Z,20.35
2023-04-26T02:58:37.736Z,20.34
2023-04-26T02:59:37.808Z,20.35
2023-04-26T03:00:37.886Z,20.34
2023-04-26T03:01:37.970Z,20.33
2023-04-26T03:02:38.100Z,20.33
2023-04-26T03:03:38.296Z,20.33
2023-04-26T03:04:38.124Z,20.32
2023-04-26T03:05:38.153Z,20.31
2023-04-26T03:06:38.231Z,20.32
2023-04-26T03:07:38.278Z,20.33
2023-04-26T03:08:38.346Z,20.32
2023-04-26T03:09:38.369Z,20.32
2023-04-26T03:10:38.448Z,20.31
2023-04-26T03:11:38.505Z,20.32
2023-04-26T03:12:38.585Z,20.32
2023-04-26T03:13:38.627Z,20.32
2023-04-26T03:14:38.688Z,20.31
2023-04-26T03:15:38.745Z,20.31
2023-04-26T03:16:38.806Z,20.32
2023-04-26T03:17:38.904Z,20.31
2023-04-26T03:18:38.958Z,20.29
2023-04-26T03:19:38.998Z,20.29
2023-04-26T03:20:39.050Z,20.28
2023-04-26T03:21:39.138Z,20.27
2023-04-26T03:22:39.191Z,20.28
2023-04-26T03:23:39.273Z,20.26
2023-04-26T03:24:39.336Z,20.27
2023-04-26T03:25:39.413Z,20.27
2023-04-26T03:26:39.456Z,20.26
2023-04-26T03:27:39.498Z,20.26
2023-04-26T03:28:39.569Z,20.27
2023-04-26T03:29:40.067Z,20.26
2023-04-26T03:30:39.698Z,20.25
2023-04-26T03:31:39.772Z,20.24
2023-04-26T03:32:39.840Z,20.24
2023-04-26T03:33:39.827Z,20.23
2023-04-26T03:34:39.904Z,20.24
2023-04-26T03:35:39.923Z,20.23
2023-04-26T03:36:39.971Z,20.24
2023-04-26T03:37:40.229Z,20.23
2023-04-26T03:38:40.121Z,20.22
2023-04-26T03:39:40.195Z,20.23
2023-04-26T03:40:40.259Z,20.23
2023-04-26T03:41:40.298Z,20.22
2023-04-26T03:42:40.333Z,20.23
2023-04-26T03:43:40.328Z,20.22
2023-04-26T03:44:40.335Z,20.22
2023-04-26T03:45:40.458Z,20.22
2023-04-26T03:46:40.417Z,20.20
2023-04-26T03:47:40.452Z,20.19
2023-04-26T03:48:40.474Z,20.18
2023-04-26T03:49:40.563Z,20.17
2023-04-26T03:50:40.650Z,20.17
2023-04-26T03:51:40.721Z,20.18
2023-04-26T03:52:40.761Z,20.17
2023-04-26T03:53:40.798Z,20.16
2023-04-26T03:54:40.826Z,20.17
2023-04-26T03:55:40.820Z,20.17
2023-04-26T03:56:40.824Z,20.16
2023-04-26T03:57:40.823Z,20.16
2023-04-26T03:58:40.898Z,20.14
2023-04-26T03:59:40.922Z,20.17
2023-04-26T04:00:40.924Z,20.18
2023-04-26T04:01:40.918Z,20.19
2023-04-26T04:02:41.051Z,20.17
2023-04-26T04:03:41.718Z,20.15
2023-04-26T04:04:41.059Z,20.16
2023-04-26T04:05:41.023Z,20.16
2023-04-26T04:06:40.916Z,20.17
2023-04-26T04:07:40.949Z,20.17
2023-04-26T04:08:41.047Z,20.16
2023-04-26T04:09:41.125Z,20.15
2023-04-26T04:10:41.217Z,20.14
2023-04-26T04:11:41.128Z,20.14
2023-04-26T04:12:41.142Z,20.12
2023-04-26T04:13:41.139Z,20.13
2023-04-26T04:14:41.135Z,20.12
2023-04-26T04:15:41.282Z,20.11
2023-04-26T04:16:41.330Z,20.09
2023-04-26T04:17:41.490Z,20.10
2023-04-26T04:18:41.538Z,20.09
2023-04-26T04:19:41.539Z,20.07
2023-04-26T04:20:41.623Z,20.09
2023-04-26T04:21:41.569Z,20.09
2023-04-26T04:22:41.594Z,20.09
2023-04-26T04:23:41.571Z,20.09
2023-04-26T04:24:41.605Z,20.07
2023-04-26T04:25:41.732Z,20.07
2023-04-26T04:26:41.825Z,20.07
2023-04-26T04:27:41.902Z,20.06
2023-04-26T04:28:42.011Z,20.07
2023-04-26T04:29:42.055Z,20.07
2023-04-26T04:30:42.102Z,20.08
2023-04-26T04:31:42.193Z,20.08
2023-04-26T04:32:42.106Z,20.07
2023-04-26T04:33:42.062Z,20.07
2023-04-26T04:34:42.043Z,20.06
2023-04-26T04:35:42.178Z,20.06
2023-04-26T04:36:42.183Z,20.06
2023-04-26T04:37:42.168Z,20.08
2023-04-26T04:38:42.141Z,20.07
2023-04-26T04:39:42.167Z,20.07
2023-04-26T04:40:42.196Z,20.06
2023-04-26T04:41:42.202Z,20.05
2023-04-26T04:42:42.297Z,20.04
2023-04-26T04:43:42.381Z,20.04
2023-04-26T04:44:42.507Z,20.04
2023-04-26T04:45:42.596Z,20.05
2023-04-26T04:46:42.706Z,20.05
2023-04-26T04:47:42.713Z,20.04
2023-04-26T04:48:42.654Z,20.05
2023-04-26T04:49:42.673Z,20.05
2023-04-26T04:50:42.730Z,20.06
2023-04-26T04:51:42.769Z,20.07
2023-04-26T04:52:42.858Z,20.08
2023-04-26T04:53:42.937Z,20.10
2023-04-26T04:54:42.993Z,20.10
2023-04-26T04:55:43.022Z,20.12
2023-04-26T04:56:43.075Z,20.13
2023-04-26T04:57:43.307Z,20.15
2023-04-26T04:58:43.233Z,20.14
2023-04-26T04:59:43.230Z,20.16
2023-04-26T05:00:43.307Z,20.16
2023-04-26T05:01:43.345Z,20.18
2023-04-26T05:02:43.456Z,20.18
2023-04-26T05:03:43.571Z,20.18
2023-04-26T05:04:43.577Z,20.20
2023-04-26T05:05:43.576Z,20.19
2023-04-26T05:06:43.626Z,20.19
2023-04-26T05:07:43.670Z,20.21
2023-04-26T05:08:43.740Z,20.21
2023-04-26T05:09:43.800Z,20.21
2023-04-26T05:10:43.836Z,20.23
2023-04-26T05:11:43.889Z,20.23
2023-04-26T05:12:43.973Z,20.24
2023-04-26T05:13:44.005Z,20.23
2023-04-26T05:14:44.083Z,20.23
2023-04-26T05:15:44.158Z,20.21
2023-04-26T05:16:44.263Z,20.21
2023-04-26T05:17:44.278Z,20.22
2023-04-26T05:18:44.271Z,20.23
2023-04-26T05:19:44.299Z,20.23
2023-04-26T05:20:44.388Z,20.24
2023-04-26T05:21:44.421Z,20.25
2023-04-26T05:22:44.465Z,20.24
2023-04-26T05:23:44.505Z,20.25
2023-04-26T05:24:44.565Z,20.25
2023-04-26T05:25:44.579Z,20.27
2023-04-26T05:26:44.670Z,20.27
2023-04-26T05:27:44.686Z,20.28
2023-04-26T05:28:44.744Z,20.28
2023-04-26T05:29:44.752Z,20.29
2023-04-26T05:30:44.801Z,20.29
2023-04-26T05:31:44.890Z,20.28
2023-04-26T05:32:44.892Z,20.28
2023-04-26T05:33:44.958Z,20.28
2023-04-26T05:34:44.976Z,20.28
2023-04-26T05:35:45.023Z,20.28
2023-04-26T05:36:45.052Z,20.29
2023-04-26T05:37:45.072Z,20.30
2023-04-26T05:38:45.131Z,20.31
2023-04-26T05:39:45.135Z,20.32
2023-04-26T05:40:45.177Z,20.33
2023-04-26T05:41:45.170Z,20.35
2023-04-26T05:42:45.194Z,20.38
2023-04-26T05:43:45.208Z,20.41
2023-04-26T05:44:45.214Z,20.44
2023-04-26T05:45:45.274Z,20.47
2023-04-26T05:46:45.220Z,20.49
2023-04-26T05:47:45.283Z,20.53
2023-04-26T05:48:45.272Z,20.57
2023-04-26T05:49:45.329Z,20.60
2023-04-26T05:50:45.408Z,20.63
2023-04-26T05:51:45.464Z,20.64
2023-04-26T05:52:45.494Z,20.67
2023-04-26T05:53:45.549Z,20.71
2023-04-26T05:54:45.637Z,20.76
2023-04-26T05:55:45.896Z,20.80
2023-04-26T05:56:45.733Z,20.82
2023-04-26T05:57:45.806Z,20.85
2023-04-26T05:58:45.813Z,20.87
2023-04-26T05:59:45.877Z,20.91
2023-04-26T06:00:46.348Z,20.94
2023-04-26T06:01:45.925Z,20.97
2023-04-26T06:02:46.135Z,21.00
2023-04-26T06:03:46.264Z,21.02
2023-04-26T06:04:46.105Z,21.06
2023-04-26T06:05:46.060Z,21.09
2023-04-26T06:06:46.033Z,21.12
2023-04-26T06:07:46.053Z,21.17
2023-04-26T06:08:46.063Z,21.21
2023-04-26T06:09:46.061Z,21.25
2023-04-26T06:10:46.062Z,21.29
2023-04-26T06:11:46.072Z,21.33
2023-04-26T06:12:46.078Z,21.37
2023-04-26T06:13:46.165Z,21.40
2023-04-26T06:14:46.250Z,21.44
2023-04-26T06:15:46.297Z,21.46
2023-04-26T06:16:46.363Z,21.51
2023-04-26T06:17:46.431Z,21.54
2023-04-26T06:18:46.449Z,21.58
2023-04-26T06:19:46.506Z,21.60
2023-04-26T06:20:46.557Z,21.63
2023-04-26T06:21:46.612Z,21.65
2023-04-26T06:22:46.637Z,21.68
2023-04-26T06:23:46.672Z,21.70
2023-04-26T06:24:46.722Z,21.73
2023-04-26T06:25:46.817Z,21.76
2023-04-26T06:26:46.833Z,21.77
2023-04-26T06:27:46.885Z,21.79
2023-04-26T06:28:46.892Z,21.82
2023-04-26T06:29:46.945Z,21.84
2023-04-26T06:30:46.989Z,21.86
2023-04-26T06:31:46.992Z,21.87
2023-04-26T06:32:47.130Z,21.88
2023-04-26T06:33:47.058Z,21.89
2023-04-26T06:34:47.094Z,21.91
2023-04-26T06:35:47.398Z,21.92
2023-04-26T06:36:47.141Z,21.94
2023-04-26T06:37:47.178Z,21.95
2023-04-26T06:38:47.199Z,21.97
2023-04-26T06:39:47.207Z,21.98
2023-04-26T06:40:47.239Z,21.99
2023-04-26T06:41:47.252Z,21.99
2023-04-26T06:42:47.244Z,22.00
2023-04-26T06:43:47.281Z,22.02
2023-04-26T06:44:47.274Z,22.02
2023-04-26T06:45:47.377Z,22.04
2023-04-26T06:46:47.350Z,22.06
2023-04-26T06:47:47.451Z,22.08
2023-04-26T06:48:47.388Z,22.08
2023-04-26T06:49:47.394Z,22.09
2023-04-26T06:50:47.483Z,22.09
2023-04-26T06:51:47.450Z,22.11
2023-04-26T06:52:47.484Z,22.03
2023-04-26T06:53:47.486Z,21.99
2023-04-26T06:54:56.393Z,21.98
2023-04-26T06:55:48.536Z,21.99
2023-04-26T06:56:47.525Z,22.02
2023-04-26T06:57:47.529Z,22.05
2023-04-26T06:58:47.506Z,22.08
2023-04-26T06:59:47.489Z,22.09
2023-04-26T07:00:47.495Z,22.12
2023-04-26T07:01:47.494Z,22.14
2023-04-26T07:02:47.562Z,22.19
2023-04-26T07:03:47.620Z,22.21
2023-04-26T07:04:47.781Z,22.24
2023-04-26T07:05:47.896Z,22.27
2023-04-26T07:06:47.468Z,22.30
2023-04-26T07:07:47.502Z,22.32
2023-04-26T07:08:47.469Z,22.35
2023-04-26T07:09:47.461Z,22.37
2023-04-26T07:10:47.489Z,22.38
2023-04-26T07:11:47.436Z,22.40
2023-04-26T07:12:47.433Z,22.42
2023-04-26T07:13:47.436Z,22.43
2023-04-26T07:14:47.423Z,22.44
2023-04-26T07:15:47.933Z,22.45
2023-04-26T07:16:47.537Z,22.46
2023-04-26T07:17:47.588Z,22.47
2023-04-26T07:18:47.587Z,22.48
2023-04-26T07:19:47.660Z,22.48
2023-04-26T07:20:47.725Z,22.50
2023-04-26T07:21:47.795Z,22.51
2023-04-26T07:22:47.945Z,22.54
2023-04-26T07:23:47.944Z,22.55
2023-04-26T07:24:47.934Z,22.55
2023-04-26T07:25:48.000Z,22.56
2023-04-26T07:26:48.051Z,22.58
2023-04-26T07:27:48.103Z,22.59
2023-04-26T07:28:48.140Z,22.61
2023-04-26T07:29:48.162Z,22.62
2023-04-26T07:30:48.279Z,22.64
2023-04-26T07:31:48.251Z,22.65
2023-04-26T07:32:48.340Z,22.66
2023-04-26T07:33:48.356Z,22.68
2023-04-26T07:34:48.318Z,22.68
2023-04-26T07:35:48.387Z,22.69
2023-04-26T07:36:48.428Z,22.70
2023-04-26T07:37:48.449Z,22.69
2023-04-26T07:38:48.506Z,22.70
2023-04-26T07:39:48.513Z,22.68
2023-04-26T07:40:48.909Z,22.69
2023-04-26T07:41:48.542Z,22.71
2023-04-26T07:42:48.578Z,22.73
2023-04-26T07:43:48.630Z,22.75
2023-04-26T07:44:48.737Z,22.76
2023-04-26T07:45:48.702Z,22.78
2023-04-26T07:46:48.710Z,22.79
2023-04-26T07:47:48.758Z,22.79
2023-04-26T07:48:48.753Z,22.79
2023-04-26T07:49:48.768Z,22.79
2023-04-26T07:50:48.916Z,22.78
2023-04-26T07:51:50.487Z,22.80
2023-04-26T07:52:48.887Z,22.79
2023-04-26T07:53:48.910Z,22.79
2023-04-26T07:54:49.007Z,22.78
2023-04-26T07:55:49.424Z,22.79
2023-04-26T07:56:49.032Z,22.79
2023-04-26T07:57:49.038Z,22.78
2023-04-26T07:58:49.128Z,22.77
2023-04-26T07:59:49.175Z,22.77
2023-04-26T08:00:49.199Z,22.76
2023-04-26T08:01:49.278Z,22.76
2023-04-26T08:02:49.440Z,22.75
2023-04-26T08:03:49.558Z,22.76
2023-04-26T08:04:49.631Z,22.76
2023-04-26T08:05:49.638Z,22.75
2023-04-26T08:06:49.509Z,22.75
2023-04-26T08:07:49.585Z,22.73
2023-04-26T08:08:49.630Z,22.72
2023-04-26T08:09:49.688Z,22.72
2023-04-26T08:10:49.897Z,22.72
2023-04-26T08:11:49.820Z,22.73
2023-04-26T08:12:49.842Z,22.72
2023-04-26T08:13:49.900Z,22.72
2023-04-26T08:14:49.978Z,22.71
2023-04-26T08:15:49.968Z,22.71
2023-04-26T08:16:50.063Z,22.72
2023-04-26T08:17:50.140Z,22.71
2023-04-26T08:18:50.111Z,22.71
2023-04-26T08:19:50.177Z,22.71
2023-04-26T08:20:50.250Z,22.72
2023-04-26T08:21:50.340Z,22.71
2023-04-26T08:22:50.405Z,22.71
2023-04-26T08:23:50.748Z,22.71
2023-04-26T08:24:50.498Z,22.72
2023-04-26T08:25:50.551Z,22.71
2023-04-26T08:26:50.633Z,22.71
2023-04-26T08:27:50.636Z,22.72
2023-04-26T08:28:50.709Z,22.71
2023-04-26T08:29:51.412Z,22.71
2023-04-26T08:30:50.859Z,22.71
2023-04-26T08:31:50.890Z,22.71
2023-04-26T08:32:50.970Z,22.71
2023-04-26T08:33:51.278Z,22.71
2023-04-26T08:34:51.055Z,22.71
2023-04-26T08:35:51.425Z,22.71
2023-04-26T08:36:51.178Z,22.71
2023-04-26T08:37:51.229Z,22.71
2023-04-26T08:38:51.281Z,22.71
2023-04-26T08:39:51.342Z,22.71
2023-04-26T08:40:51.416Z,22.71
2023-04-26T08:41:51.441Z,22.71
2023-04-26T08:42:51.572Z,22.72
2023-04-26T08:43:51.849Z,22.71
2023-04-26T08:44:51.617Z,22.72
2023-04-26T08:45:52.010Z,22.72
2023-04-26T08:46:51.707Z,22.71
2023-04-26T08:47:51.793Z,22.73
2023-04-26T08:48:51.825Z,22.73
2023-04-26T08:49:51.884Z,22.73
2023-04-26T08:50:52.443Z,22.73
2023-04-26T08:51:51.987Z,22.74
2023-04-26T08:52:52.074Z,22.74
2023-04-26T08:53:52.195Z,22.74
2023-04-26T08:54:52.141Z,22.75
2023-04-26T08:55:52.193Z,22.75
2023-04-26T08:56:52.234Z,22.75
2023-04-26T08:57:52.284Z,22.75
2023-04-26T08:58:52.349Z,22.76
2023-04-26T08:59:52.398Z,22.76
2023-04-26T09:00:52.476Z,22.76
2023-04-26T09:01:52.568Z,22.77
2023-04-26T09:02:53.062Z,22.77
2023-04-26T09:03:52.972Z,22.78
2023-04-26T09:04:52.779Z,22.77
2023-04-26T09:05:52.715Z,22.78
2023-04-26T09:06:52.739Z,22.78
2023-04-26T09:07:52.794Z,22.78
2023-04-26T09:08:52.859Z,22.79
2023-04-26T09:09:52.910Z,22.80
2023-04-26T09:10:52.949Z,22.80
2023-04-26T09:11:52.972Z,22.82
2023-04-26T09:12:53.042Z,22.80
2023-04-26T09:13:53.306Z,22.82
2023-04-26T09:14:53.168Z,22.82
2023-04-26T09:15:53.273Z,22.82
2023-04-26T09:16:53.305Z,22.82
2023-04-26T09:17:53.377Z,22.83
2023-04-26T09:18:53.548Z,22.83
2023-04-26T09:19:53.359Z,22.84
2023-04-26T09:20:53.420Z,22.84
2023-04-26T09:21:53.465Z,22.85
2023-04-26T09:22:53.521Z,22.85
2023-04-26T09:23:53.547Z,22.86
2023-04-26T09:24:53.593Z,22.85
2023-04-26T09:25:53.644Z,22.85
2023-04-26T09:26:53.690Z,22.86
2023-04-26T09:27:53.745Z,22.86
2023-04-26T09:28:53.876Z,22.87
2023-04-26T09:29:53.829Z,22.86
2023-04-26T09:30:53.983Z,22.87
2023-04-26T09:31:53.986Z,22.88
2023-04-26T09:32:53.978Z,22.87
2023-04-26T09:33:54.037Z,22.89
2023-04-26T09:34:54.046Z,22.89
2023-04-26T09:35:54.075Z,22.88
2023-04-26T09:36:54.085Z,22.89
2023-04-26T09:37:58.757Z,22.89
2023-04-26T09:38:55.137Z,22.89
2023-04-26T09:39:54.135Z,22.90
2023-04-26T09:40:54.452Z,22.89
2023-04-26T09:41:54.092Z,22.89
2023-04-26T09:42:54.103Z,22.91
2023-04-26T09:43:54.088Z,22.92
2023-04-26T09:44:54.111Z,22.93
2023-04-26T09:45:54.448Z,22.96
2023-04-26T09:46:54.198Z,22.98
2023-04-26T09:47:54.124Z,23.00
2023-04-26T09:48:54.214Z,23.01
2023-04-26T09:49:54.061Z,23.03
2023-04-26T09:50:54.531Z,23.03
2023-04-26T09:51:54.044Z,23.04
2023-04-26T09:52:54.058Z,23.03
2023-04-26T09:53:55.605Z,23.05
2023-04-26T09:54:54.194Z,23.06
2023-04-26T09:55:54.270Z,23.06
2023-04-26T09:56:54.231Z,23.07
2023-04-26T09:57:54.270Z,23.06
2023-04-26T09:58:56.013Z,23.06
2023-04-26T09:59:55.541Z,23.06
2023-04-26T10:00:54.364Z,23.06
2023-04-26T10:01:54.312Z,23.06
2023-04-26T10:02:54.616Z,23.03
2023-04-26T10:03:54.618Z,23.05
2023-04-26T10:04:54.650Z,23.03
2023-04-26T10:05:54.478Z,23.02
2023-04-26T10:06:54.465Z,23.01
2023-04-26T10:07:54.518Z,23.02
2023-04-26T10:08:54.822Z,23.02
2023-04-26T10:09:55.542Z,23.02
2023-04-26T10:10:54.558Z,23.04
2023-04-26T10:11:54.563Z,23.05
2023-04-26T10:12:54.599Z,23.05
2023-04-26T10:13:54.617Z,23.06
2023-04-26T10:14:54.658Z,23.05
2023-04-26T10:15:54.685Z,23.06
2023-04-26T10:16:54.951Z,23.05
2023-04-26T10:17:54.748Z,23.05
2023-04-26T10:18:55.120Z,23.04
2023-04-26T10:19:54.765Z,23.04
2023-04-26T10:20:54.826Z,23.03
2023-04-26T10:21:54.818Z,23.03
2023-04-26T10:22:54.860Z,23.02
2023-04-26T10:23:54.861Z,23.02
2023-04-26T10:24:54.962Z,23.02
2023-04-26T10:25:54.991Z,23.01
2023-04-26T10:26:55.102Z,23.01
2023-04-26T10:27:54.983Z,23.01
2023-04-26T10:28:58.332Z,23.01
2023-04-26T10:29:56.003Z,23.00
2023-04-26T10:30:55.020Z,23.01
2023-04-26T10:31:55.038Z,23.01
2023-04-26T10:32:55.048Z,23.01
2023-04-26T10:33:54.970Z,23.01
2023-04-26T10:34:54.964Z,23.00
2023-04-26T10:35:54.967Z,23.01
2023-04-26T10:36:54.954Z,22.99
2023-04-26T10:37:54.929Z,23.01
2023-04-26T10:38:55.111Z,23.03
2023-04-26T10:39:54.902Z,23.05
2023-04-26T10:40:55.294Z,23.05
2023-04-26T10:41:54.937Z,23.07
2023-04-26T10:42:54.938Z,23.08
2023-04-26T10:43:55.307Z,23.09
2023-04-26T10:44:54.893Z,23.11
2023-04-26T10:45:54.932Z,23.13
2023-04-26T10:46:54.918Z,23.14
2023-04-26T10:47:54.948Z,23.15
2023-04-26T10:48:55.021Z,23.16
2023-04-26T10:49:54.875Z,23.17
2023-04-26T10:50:54.890Z,23.17
2023-04-26T10:51:54.845Z,23.18
2023-04-26T10:52:55.524Z,23.18
2023-04-26T10:53:55.187Z,23.17
2023-04-26T10:54:54.888Z,23.18
2023-04-26T10:55:54.845Z,23.18
2023-04-26T10:56:54.832Z,23.19
2023-04-26T10:57:54.826Z,23.19
2023-04-26T10:58:54.842Z,23.20
2023-04-26T10:59:55.501Z,23.20
2023-04-26T11:00:54.922Z,23.20
2023-04-26T11:01:55.141Z,23.20
2023-04-26T11:02:55.054Z,23.20
2023-04-26T11:03:55.204Z,23.20
2023-04-26T11:04:55.000Z,23.20
2023-04-26T11:05:54.902Z,23.20
2023-04-26T11:06:54.908Z,23.21
2023-04-26T11:07:54.945Z,23.20
2023-04-26T11:08:55.402Z,23.20
2023-04-26T11:09:54.903Z,23.20
2023-04-26T11:10:54.967Z,23.20
2023-04-26T11:11:54.952Z,23.20
2023-04-26T11:12:54.984Z,23.20
2023-04-26T11:13:54.986Z,23.19
2023-04-26T11:14:54.957Z,23.21
2023-04-26T11:15:55.150Z,23.21
2023-04-26T11:16:54.999Z,23.21
2023-04-26T11:17:55.043Z,23.20
2023-04-26T11:18:55.200Z,23.20
2023-04-26T11:19:54.988Z,23.21
2023-04-26T11:20:55.022Z,23.21
2023-04-26T11:21:56.316Z,23.22
2023-04-26T11:22:55.043Z,23.22
2023-04-26T11:23:55.050Z,23.22
2023-04-26T11:24:55.901Z,23.22
2023-04-26T11:25:55.485Z,23.22
2023-04-26T11:26:55.037Z,23.23
2023-04-26T11:27:55.049Z,23.23
2023-04-26T11:28:55.240Z,23.23
2023-04-26T11:29:55.083Z,23.24
2023-04-26T11:30:55.529Z,23.24
2023-04-26T11:31:55.207Z,23.22
2023-04-26T11:32:55.128Z,23.24
2023-04-26T11:33:55.057Z,23.25
2023-04-26T11:34:55.055Z,23.27
2023-04-26T11:35:55.071Z,23.28
2023-04-26T11:36:55.471Z,23.31
2023-04-26T11:37:55.123Z,23.32
2023-04-26T11:38:55.092Z,23.34
2023-04-26T11:39:55.104Z,23.34
2023-04-26T11:40:55.181Z,23.35
2023-04-26T11:41:55.191Z,23.37
2023-04-26T11:42:55.229Z,23.37
2023-04-26T11:43:55.405Z,23.38
2023-04-26T11:44:55.322Z,23.39
2023-04-26T11:45:55.375Z,23.40
2023-04-26T11:46:55.458Z,23.42
2023-04-26T11:47:55.536Z,23.42
2023-04-26T11:48:55.842Z,23.42
2023-04-26T11:49:55.628Z,23.43
2023-04-26T11:50:55.688Z,23.44
2023-04-26T11:51:55.791Z,23.46
2023-04-26T11:52:55.798Z,23.48
2023-04-26T11:53:55.848Z,23.50
2023-04-26T11:54:55.955Z,23.52
2023-04-26T11:55:56.000Z,23.54
2023-04-26T11:56:56.039Z,23.56
2023-04-26T11:57:56.102Z,23.57
2023-04-26T11:58:56.265Z,23.58
2023-04-26T11:59:56.230Z,23.58
2023-04-26T12:00:56.254Z,23.59
2023-04-26T12:01:56.431Z,23.60
2023-04-26T12:02:56.479Z,23.60
2023-04-26T12:03:56.664Z,23.61
2023-04-26T12:04:56.626Z,23.61
2023-04-26T12:05:56.590Z,23.62
2023-04-26T12:06:56.593Z,23.63
2023-04-26T12:07:56.674Z,23.63
2023-04-26T12:08:56.738Z,23.62
2023-04-26T12:09:58.072Z,23.62
2023-04-26T12:10:56.895Z,23.63
2023-04-26T12:11:56.911Z,23.64
2023-04-26T12:12:57.122Z,23.64
2023-04-26T12:13:56.982Z,23.64
2023-04-26T12:14:57.071Z,23.64
2023-04-26T12:15:57.098Z,23.64
2023-04-26T12:16:57.254Z,23.64
2023-04-26T12:17:57.274Z,23.65
2023-04-26T12:18:57.392Z,23.65
2023-04-26T12:19:57.334Z,23.64
2023-04-26T12:20:57.378Z,23.64
2023-04-26T12:21:57.428Z,23.65
2023-04-26T12:22:57.501Z,23.66
2023-04-26T12:23:57.523Z,23.67
2023-04-26T12:24:57.588Z,23.67
2023-04-26T12:25:57.620Z,23.68
2023-04-26T12:26:58.691Z,23.70
2023-04-26T12:27:57.684Z,23.70
2023-04-26T12:28:57.754Z,23.72
2023-04-26T12:29:57.799Z,23.72
2023-04-26T12:30:57.840Z,23.73
2023-04-26T12:31:57.951Z,23.73
2023-04-26T12:33:05.719Z,23.74
2023-04-26T12:33:58.924Z,23.75
2023-04-26T12:34:57.893Z,23.75
2023-04-26T12:35:57.972Z,23.75
2023-04-26T12:36:57.933Z,23.76
2023-04-26T12:37:57.906Z,23.74
2023-04-26T12:38:57.916Z,23.74
2023-04-26T12:39:57.863Z,23.73
2023-04-26T12:40:57.891Z,23.73
2023-04-26T12:41:57.852Z,23.74
2023-04-26T12:42:57.923Z,23.73
2023-04-26T12:43:57.859Z,23.75
2023-04-26T12:44:57.908Z,23.74
2023-04-26T12:45:57.943Z,23.74
2023-04-26T12:46:58.014Z,23.74
2023-04-26T12:47:58.012Z,23.73
2023-04-26T12:48:58.009Z,23.74
2023-04-26T12:49:58.038Z,23.74
2023-04-26T12:50:58.084Z,23.74
2023-04-26T12:51:58.188Z,23.74
2023-04-26T12:52:58.181Z,23.73